createdAt,value
2023-04-16T00:01:17.094Z,61.85
2023-04-16T00:03:45.212Z,61.48
2023-04-16T00:06:13.497Z,61.33
2023-04-16T00:08:43.345Z,61.38
2023-04-16T00:11:11.527Z,61.66
2023-04-16T00:13:39.503Z,60.96
2023-04-16T00:16:07.986Z,60.61
2023-04-16T00:18:36.160Z,59.92
2023-04-16T00:21:04.197Z,59.52
2023-04-16T00:23:32.263Z,57.09
2023-04-16T00:26:00.366Z,56.09
2023-04-16T00:28:28.455Z,55.91
2023-04-16T00:30:56.423Z,56.48
2023-04-16T00:33:24.517Z,55.83
2023-04-16T00:35:52.561Z,56.12
2023-04-16T00:38:20.996Z,57.18
2023-04-16T00:40:48.963Z,57.66
2023-04-16T00:43:23.255Z,59.14
2023-04-16T00:45:56.641Z,60.87
2023-04-16T00:48:27.872Z,66.46
2023-04-16T00:50:56.184Z,70.66
2023-04-16T00:53:24.589Z,70.65
2023-04-16T00:55:52.605Z,70.17
2023-04-16T00:58:20.685Z,69.18
2023-04-16T01:00:48.843Z,68.25
2023-04-16T01:03:17.526Z,67.10
2023-04-16T01:05:46.159Z,66.14
2023-04-16T01:08:21.496Z,65.90
2023-04-16T01:10:49.542Z,65.29
2023-04-16T01:13:17.497Z,64.83
2023-04-16T01:15:45.612Z,64.65
2023-04-16T01:18:17.556Z,64.33
2023-04-16T01:20:46.742Z,64.19
2023-04-16T01:23:15.219Z,63.72
2023-04-16T01:25:46.666Z,63.50
2023-04-16T01:28:18.289Z,63.82
2023-04-16T01:30:47.340Z,63.79
2023-04-16T01:33:21.695Z,63.64
2023-04-16T01:35:55.871Z,63.20
2023-04-16T01:38:24.036Z,63.16
2023-04-16T01:40:57.745Z,62.87
2023-04-16T01:43:25.864Z,62.49
2023-04-16T01:46:16.418Z,62.98
2023-04-16T01:48:44.764Z,62.70
2023-04-16T01:51:12.888Z,63.14
2023-04-16T01:53:40.860Z,63.02
2023-04-16T01:56:08.950Z,62.24
2023-04-16T01:58:37.047Z,61.70
2023-04-16T02:01:06.006Z,62.01
2023-04-16T02:03:34.615Z,62.39
2023-04-16T02:06:02.869Z,63.10
2023-04-16T02:08:30.817Z,63.49
2023-04-16T02:11:00.538Z,62.93
2023-04-16T02:13:28.708Z,62.54
2023-04-16T02:15:57.064Z,62.42
2023-04-16T02:18:36.826Z,61.81
2023-04-16T02:21:06.538Z,62.24
2023-04-16T02:23:35.113Z,62.54
2023-04-16T02:26:03.301Z,62.29
2023-04-16T02:28:31.726Z,61.90
2023-04-16T02:31:00.675Z,62.08
2023-04-16T02:33:29.287Z,63.47
2023-04-16T02:36:02.722Z,64.35
2023-04-16T02:38:31.109Z,64.86
2023-04-16T02:40:59.476Z,64.48
2023-04-16T02:43:27.740Z,64.61
2023-04-16T02:45:55.982Z,64.37
2023-04-16T02:48:24.216Z,64.05
2023-04-16T02:50:52.324Z,63.90
2023-04-16T02:53:20.468Z,63.67
2023-04-16T02:55:55.079Z,63.31
2023-04-16T02:58:24.691Z,63.23
2023-04-16T03:00:53.864Z,63.32
2023-04-16T03:03:22.584Z,63.20
2023-04-16T03:05:51.056Z,63.20
2023-04-16T03:08:19.089Z,62.85
2023-04-16T03:10:47.292Z,62.53
2023-04-16T03:13:15.777Z,62.24
2023-04-16T03:15:50.071Z,62.35
2023-04-16T03:18:18.263Z,62.12
2023-04-16T03:20:46.270Z,62.87
2023-04-16T03:23:14.248Z,62.80
2023-04-16T03:25:43.707Z,62.60
2023-04-16T03:28:12.083Z,62.87
2023-04-16T03:30:40.502Z,62.69
2023-04-16T03:33:09.292Z,62.91
2023-04-16T03:35:37.423Z,63.18
2023-04-16T03:38:05.838Z,62.98
2023-04-16T03:40:33.916Z,62.06
2023-04-16T03:43:02.460Z,62.37
2023-04-16T03:45:30.566Z,63.30
2023-04-16T03:47:59.656Z,63.52
2023-04-16T03:50:27.700Z,63.56
2023-04-16T03:52:56.297Z,63.01
2023-04-16T03:55:24.724Z,62.70
2023-04-16T03:57:52.936Z,62.61
2023-04-16T04:00:21.265Z,63.22
2023-04-16T04:02:57.125Z,62.82
2023-04-16T04:05:25.465Z,62.47
2023-04-16T04:07:54.037Z,62.67
2023-04-16T04:10:22.086Z,62.50
2023-04-16T04:12:50.022Z,62.40
2023-04-16T04:15:18.642Z,61.81
2023-04-16T04:17:46.699Z,62.03
2023-04-16T04:20:14.698Z,62.60
2023-04-16T04:22:45.297Z,62.78
2023-04-16T04:25:13.451Z,62.80
2023-04-16T04:27:41.597Z,62.87
2023-04-16T04:30:10.873Z,62.39
2023-04-16T04:32:42.503Z,62.06
2023-04-16T04:35:11.115Z,61.88
2023-04-16T04:37:39.124Z,61.64
2023-04-16T04:40:13.647Z,61.21
2023-04-16T04:42:41.779Z,60.78
2023-04-16T04:45:11.659Z,60.94
2023-04-16T04:47:39.879Z,60.80
2023-04-16T04:50:09.085Z,60.29
2023-04-16T04:52:37.917Z,60.33
2023-04-16T04:55:06.384Z,60.13
2023-04-16T04:57:34.465Z,58.35
2023-04-16T05:00:04.404Z,58.78
2023-04-16T05:02:40.093Z,60.87
2023-04-16T05:05:08.921Z,63.08
2023-04-16T05:07:36.969Z,66.09
2023-04-16T05:10:05.982Z,66.44
2023-04-16T05:12:33.928Z,64.54
2023-04-16T05:15:01.843Z,64.15
2023-04-16T05:17:29.894Z,63.86
2023-04-16T05:19:57.860Z,63.02
2023-04-16T05:22:25.907Z,61.86
2023-04-16T05:24:53.838Z,60.95
2023-04-16T05:27:21.827Z,60.59
2023-04-16T05:29:49.820Z,60.29
2023-04-16T05:32:18.132Z,59.31
2023-04-16T05:34:46.074Z,59.05
2023-04-16T05:37:14.023Z,60.37
2023-04-16T05:39:42.033Z,61.60
2023-04-16T05:42:10.043Z,64.94
2023-04-16T05:44:38.044Z,64.42
2023-04-16T05:47:07.362Z,64.65
2023-04-16T05:49:37.530Z,63.40
2023-04-16T05:52:05.898Z,62.31
2023-04-16T05:54:33.911Z,62.03
2023-04-16T05:57:02.214Z,61.17
2023-04-16T05:59:31.198Z,60.40
2023-04-16T06:01:59.521Z,60.43
2023-04-16T06:04:27.628Z,58.31
2023-04-16T06:06:55.682Z,57.76
2023-04-16T06:09:24.778Z,58.66
2023-04-16T06:11:55.591Z,60.43
2023-04-16T06:14:23.571Z,64.92
2023-04-16T06:16:51.570Z,63.73
2023-04-16T06:19:19.632Z,62.41
2023-04-16T06:21:47.779Z,61.73
2023-04-16T06:24:15.872Z,58.74
2023-04-16T06:26:44.089Z,56.56
2023-04-16T06:29:14.120Z,57.88
2023-04-16T06:31:42.217Z,60.60
2023-04-16T06:34:18.811Z,61.39
2023-04-16T06:36:46.894Z,62.58
2023-04-16T06:39:14.981Z,62.83
2023-04-16T06:41:43.024Z,60.95
2023-04-16T06:44:10.993Z,58.36
2023-04-16T06:46:38.969Z,59.86
2023-04-16T06:49:07.431Z,61.35
2023-04-16T06:51:35.532Z,63.63
2023-04-16T06:54:03.498Z,62.10
2023-04-16T06:56:32.360Z,62.00
2023-04-16T06:59:01.079Z,60.72
2023-04-16T07:01:31.164Z,58.52
2023-04-16T07:03:59.449Z,58.67
2023-04-16T07:06:28.025Z,58.67
2023-04-16T07:08:56.067Z,61.65
2023-04-16T07:11:24.056Z,63.91
2023-04-16T07:13:54.080Z,63.35
2023-04-16T07:16:22.077Z,61.61
2023-04-16T07:18:50.450Z,60.57
2023-04-16T07:21:18.509Z,59.97
2023-04-16T07:23:46.418Z,56.52
2023-04-16T07:26:14.437Z,56.78
2023-04-16T07:28:42.584Z,58.94
2023-04-16T07:31:10.518Z,57.70
2023-04-16T07:33:38.562Z,58.05
2023-04-16T07:36:06.949Z,59.54
2023-04-16T07:38:34.914Z,59.62
2023-04-16T07:41:02.909Z,59.11
2023-04-16T07:43:31.109Z,59.56
2023-04-16T07:45:59.085Z,57.48
2023-04-16T07:48:27.193Z,58.75
2023-04-16T07:50:55.764Z,57.13
2023-04-16T07:53:23.849Z,59.51
2023-04-16T07:55:51.857Z,59.35
2023-04-16T07:58:19.788Z,59.55
2023-04-16T08:00:49.305Z,58.55
2023-04-16T08:03:18.910Z,59.27
2023-04-16T08:05:47.064Z,61.01
2023-04-16T08:08:15.032Z,60.65
2023-04-16T08:10:43.064Z,55.85
2023-04-16T08:13:11.111Z,56.33
2023-04-16T08:15:39.061Z,56.86
2023-04-16T08:18:12.937Z,57.97
2023-04-16T08:20:41.202Z,56.48
2023-04-16T08:23:12.401Z,57.67
2023-04-16T08:25:40.445Z,59.83
2023-04-16T08:28:08.423Z,60.61
2023-04-16T08:30:36.366Z,58.19
2023-04-16T08:33:04.423Z,61.13
2023-04-16T08:35:32.462Z,60.88
2023-04-16T08:38:02.387Z,60.28
2023-04-16T08:40:30.993Z,60.04
2023-04-16T08:42:59.595Z,60.41
2023-04-16T08:45:27.792Z,59.62
2023-04-16T08:47:56.049Z,59.92
2023-04-16T08:50:25.526Z,59.71
2023-04-16T08:52:58.298Z,60.44
2023-04-16T08:55:39.796Z,60.28
2023-04-16T08:58:24.381Z,60.75
2023-04-16T09:00:52.322Z,61.13
2023-04-16T09:03:21.731Z,61.63
2023-04-16T09:06:02.734Z,60.80
2023-04-16T09:08:33.931Z,59.60
2023-04-16T09:11:04.079Z,60.12
2023-04-16T09:13:32.400Z,60.80
2023-04-16T09:16:01.860Z,60.97
2023-04-16T09:18:31.229Z,61.90
2023-04-16T09:20:59.251Z,61.54
2023-04-16T09:23:27.275Z,60.92
2023-04-16T09:25:56.949Z,61.86
2023-04-16T09:28:48.325Z,61.86
2023-04-16T09:31:18.060Z,62.61
2023-04-16T09:34:06.761Z,60.87
2023-04-16T09:36:35.466Z,58.10
2023-04-16T09:39:03.984Z,58.03
2023-04-16T09:41:36.024Z,57.42
2023-04-16T09:44:05.449Z,58.05
2023-04-16T09:46:41.272Z,59.08
2023-04-16T09:49:16.603Z,59.50
2023-04-16T09:51:46.636Z,58.86
2023-04-16T09:54:14.620Z,59.68
2023-04-16T09:56:44.595Z,60.31
2023-04-16T09:59:19.673Z,61.35
2023-04-16T10:01:49.843Z,61.91
2023-04-16T10:04:18.183Z,62.39
2023-04-16T10:07:05.106Z,62.32
2023-04-16T10:09:37.479Z,61.99
2023-04-16T10:12:06.344Z,60.31
2023-04-16T10:14:34.992Z,56.36
2023-04-16T10:17:04.844Z,56.19
2023-04-16T10:19:32.957Z,57.49
2023-04-16T10:22:02.218Z,58.77
2023-04-16T10:24:31.430Z,60.18
2023-04-16T10:26:59.770Z,60.62
2023-04-16T10:29:29.032Z,60.61
2023-04-16T10:31:57.127Z,60.53
2023-04-16T10:34:25.692Z,60.09
2023-04-16T10:36:54.342Z,60.25
2023-04-16T10:39:25.004Z,60.86
2023-04-16T10:42:08.293Z,61.11
2023-04-16T10:44:36.817Z,60.69
2023-04-16T10:47:12.114Z,59.91
2023-04-16T10:49:41.240Z,59.35
2023-04-16T10:52:14.948Z,60.38
2023-04-16T10:54:43.367Z,59.77
2023-04-16T10:57:17.889Z,60.52
2023-04-16T10:59:46.564Z,61.13
2023-04-16T11:02:18.541Z,61.61
2023-04-16T11:04:49.848Z,61.06
2023-04-16T11:07:20.682Z,61.70
2023-04-16T11:10:00.092Z,61.57
2023-04-16T11:12:41.187Z,61.07
2023-04-16T11:15:16.935Z,60.71
2023-04-16T11:17:51.762Z,60.70
2023-04-16T11:20:21.691Z,61.46
2023-04-16T11:22:50.683Z,61.14
2023-04-16T11:25:31.748Z,60.25
2023-04-16T11:27:59.935Z,59.61
2023-04-16T11:30:34.241Z,59.22
2023-04-16T11:33:04.184Z,60.03
2023-04-16T11:35:32.628Z,60.50
2023-04-16T11:38:00.671Z,60.25
2023-04-16T11:40:31.884Z,60.82
2023-04-16T11:43:24.179Z,61.16
2023-04-16T11:46:00.061Z,60.52
2023-04-16T11:48:48.054Z,61.04
2023-04-16T11:51:16.368Z,60.21
2023-04-16T11:53:53.313Z,59.11
2023-04-16T11:56:33.287Z,59.62
2023-04-16T11:59:20.312Z,60.33
2023-04-16T12:01:51.567Z,60.37
2023-04-16T12:04:25.287Z,58.28
2023-04-16T12:07:06.971Z,58.03
2023-04-16T12:09:37.862Z,58.97
2023-04-16T12:12:26.262Z,59.25
2023-04-16T12:14:54.938Z,59.72
2023-04-16T12:17:23.575Z,57.56
2023-04-16T12:19:52.467Z,57.04
2023-04-16T12:22:31.079Z,57.97
2023-04-16T12:24:59.604Z,58.40
2023-04-16T12:27:53.366Z,58.79
2023-04-16T12:30:23.807Z,58.63
2023-04-16T12:32:55.558Z,57.45
2023-04-16T12:35:32.375Z,57.06
2023-04-16T12:38:01.193Z,57.99
2023-04-16T12:40:29.109Z,58.57
2023-04-16T12:42:57.569Z,58.50
2023-04-16T12:45:25.927Z,58.59
2023-04-16T12:47:53.940Z,58.87
2023-04-16T12:50:22.469Z,59.21
2023-04-16T12:52:50.538Z,59.28
2023-04-16T12:55:21.374Z,59.21
2023-04-16T12:57:52.820Z,59.37
2023-04-16T13:00:21.207Z,59.14
2023-04-16T13:02:49.478Z,59.56
2023-04-16T13:05:19.609Z,59.44
2023-04-16T13:07:47.803Z,59.04
2023-04-16T13:10:16.922Z,59.32
2023-04-16T13:12:49.939Z,59.06
2023-04-16T13:15:31.298Z,58.96
2023-04-16T13:17:59.412Z,58.15
2023-04-16T13:20:38.602Z,57.89
2023-04-16T13:23:22.022Z,57.82
2023-04-16T13:25:58.644Z,57.73
2023-04-16T13:28:29.173Z,57.76
2023-04-16T13:31:14.275Z,57.80
2023-04-16T13:33:59.175Z,56.90
2023-04-16T13:36:27.912Z,56.93
2023-04-16T13:38:56.095Z,56.23
2023-04-16T13:41:24.291Z,56.91
2023-04-16T13:43:52.304Z,56.92
2023-04-16T13:46:20.434Z,56.21
2023-04-16T13:48:48.668Z,56.43
2023-04-16T13:51:16.723Z,56.82
2023-04-16T13:53:44.813Z,56.76
2023-04-16T13:56:12.811Z,57.30
2023-04-16T13:58:41.544Z,57.45
2023-04-16T14:01:10.015Z,57.78
2023-04-16T14:03:39.104Z,56.88
2023-04-16T14:06:07.418Z,57.16
2023-04-16T14:08:35.882Z,58.14
2023-04-16T14:11:05.794Z,58.53
2023-04-16T14:13:33.722Z,57.95
2023-04-16T14:16:02.800Z,58.58
2023-04-16T14:18:30.897Z,58.67
2023-04-16T14:20:59.000Z,58.71
2023-04-16T14:23:27.271Z,58.65
2023-04-16T14:25:55.554Z,58.34
2023-04-16T14:28:23.619Z,58.84
2023-04-16T14:30:51.690Z,58.91
2023-04-16T14:33:19.846Z,59.24
2023-04-16T14:35:47.817Z,59.59
2023-04-16T14:38:16.214Z,59.63
2023-04-16T14:40:44.277Z,60.28
2023-04-16T14:43:12.580Z,60.42
2023-04-16T14:45:41.308Z,60.56
2023-04-16T14:48:09.631Z,61.10
2023-04-16T14:50:39.195Z,61.27
2023-04-16T14:53:07.502Z,61.38
2023-04-16T14:55:35.810Z,61.48
2023-04-16T14:58:04.159Z,61.84
2023-04-16T15:00:34.695Z,61.52
2023-04-16T15:03:02.788Z,61.34
2023-04-16T15:05:31.866Z,61.15
2023-04-16T15:08:00.712Z,61.23
2023-04-16T15:10:28.892Z,61.85
2023-04-16T15:12:56.989Z,62.26
2023-04-16T15:15:25.152Z,63.00
2023-04-16T15:17:53.468Z,61.91
2023-04-16T15:20:21.724Z,59.16
2023-04-16T15:22:49.734Z,58.81
2023-04-16T15:25:17.752Z,59.33
2023-04-16T15:27:46.434Z,60.47
2023-04-16T15:30:14.777Z,61.56
2023-04-16T15:32:44.487Z,61.96
2023-04-16T15:35:13.744Z,63.51
2023-04-16T15:37:41.644Z,63.26
2023-04-16T15:40:10.855Z,61.76
2023-04-16T15:42:39.171Z,58.49
2023-04-16T15:45:07.512Z,58.43
2023-04-16T15:47:36.434Z,58.47
2023-04-16T15:50:05.756Z,59.68
2023-04-16T15:52:33.761Z,60.92
2023-04-16T15:55:04.075Z,61.80
2023-04-16T15:57:32.601Z,63.21
2023-04-16T16:00:07.037Z,63.56
2023-04-16T16:02:36.405Z,61.33
2023-04-16T16:05:07.687Z,60.60
2023-04-16T16:07:36.044Z,59.12
2023-04-16T16:10:06.023Z,57.87
2023-04-16T16:12:34.258Z,58.57
2023-04-16T16:15:02.517Z,59.74
2023-04-16T16:17:30.505Z,61.62
2023-04-16T16:19:59.444Z,62.36
2023-04-16T16:22:27.650Z,64.94
2023-04-16T16:24:56.372Z,63.06
2023-04-16T16:27:24.486Z,62.23
2023-04-16T16:29:52.673Z,61.23
2023-04-16T16:32:20.906Z,58.32
2023-04-16T16:34:48.787Z,57.86
2023-04-16T16:37:16.898Z,58.97
2023-04-16T16:39:44.993Z,59.84
2023-04-16T16:42:14.005Z,61.45
2023-04-16T16:44:41.965Z,60.62
2023-04-16T16:47:10.021Z,63.54
2023-04-16T16:49:38.074Z,66.26
2023-04-16T16:52:06.130Z,64.75
2023-04-16T16:54:34.261Z,62.75
2023-04-16T16:57:05.643Z,63.37
2023-04-16T16:59:33.734Z,61.96
2023-04-16T17:02:02.671Z,61.09
2023-04-16T17:04:30.767Z,60.43
2023-04-16T17:07:00.360Z,59.84
2023-04-16T17:09:28.860Z,58.28
2023-04-16T17:11:57.157Z,56.39
2023-04-16T17:14:25.445Z,56.75
2023-04-16T17:16:53.629Z,56.66
2023-04-16T17:19:21.803Z,57.05
2023-04-16T17:21:51.422Z,57.18
2023-04-16T17:24:19.548Z,57.18
2023-04-16T17:26:47.648Z,57.83
2023-04-16T17:29:15.581Z,58.83
2023-04-16T17:31:43.598Z,59.41
2023-04-16T17:34:11.838Z,59.69
2023-04-16T17:36:40.231Z,60.70
2023-04-16T17:39:08.229Z,60.25
2023-04-16T17:41:36.209Z,61.34
2023-04-16T17:44:04.315Z,62.88
2023-04-16T17:46:32.395Z,67.83
2023-04-16T17:49:00.766Z,69.79
2023-04-16T17:51:28.933Z,70.31
2023-04-16T17:53:56.971Z,69.89
2023-04-16T17:56:24.973Z,68.98
2023-04-16T17:58:52.942Z,67.80
2023-04-16T18:01:21.013Z,66.77
2023-04-16T18:03:49.409Z,65.04
2023-04-16T18:06:17.770Z,64.29
2023-04-16T18:08:46.143Z,63.22
2023-04-16T18:11:14.119Z,61.94
2023-04-16T18:13:43.822Z,61.63
2023-04-16T18:16:18.171Z,59.08
2023-04-16T18:18:46.362Z,58.05
2023-04-16T18:21:14.490Z,58.67
2023-04-16T18:23:42.609Z,58.62
2023-04-16T18:26:11.203Z,58.95
2023-04-16T18:28:40.648Z,60.13
2023-04-16T18:31:08.785Z,59.93
2023-04-16T18:33:52.401Z,64.02
2023-04-16T18:36:24.306Z,67.40
2023-04-16T18:39:00.129Z,67.81
2023-04-16T18:41:31.013Z,66.91
2023-04-16T18:43:59.050Z,66.12
2023-04-16T18:46:27.770Z,64.82
2023-04-16T18:48:56.229Z,64.08
2023-04-16T18:51:25.264Z,63.22
2023-04-16T18:53:53.398Z,63.08
2023-04-16T18:56:21.898Z,62.80
2023-04-16T18:58:49.923Z,62.80
2023-04-16T19:01:18.598Z,61.21
2023-04-16T19:03:46.832Z,60.22
2023-04-16T19:06:14.911Z,59.90
2023-04-16T19:08:43.154Z,59.81
2023-04-16T19:11:11.164Z,59.77
2023-04-16T19:13:39.433Z,59.56
2023-04-16T19:16:11.399Z,58.04
2023-04-16T19:18:39.867Z,56.92
2023-04-16T19:21:10.064Z,57.66
2023-04-16T19:23:38.077Z,57.17
2023-04-16T19:26:06.443Z,59.11
2023-04-16T19:28:34.532Z,58.75
2023-04-16T19:31:02.860Z,57.78
2023-04-16T19:33:31.544Z,57.79
2023-04-16T19:36:00.537Z,58.66
2023-04-16T19:38:29.367Z,58.54
2023-04-16T19:40:57.594Z,59.67
2023-04-16T19:43:25.665Z,60.80
2023-04-16T19:45:54.264Z,63.99
2023-04-16T19:48:22.533Z,69.78
2023-04-16T19:50:50.700Z,71.28
2023-04-16T19:53:18.863Z,69.36
2023-04-16T19:55:46.956Z,67.50
2023-04-16T19:58:15.134Z,64.73
2023-04-16T20:00:43.520Z,63.64
2023-04-16T20:03:11.785Z,62.25
2023-04-16T20:05:39.838Z,61.39
2023-04-16T20:08:07.911Z,60.47
2023-04-16T20:10:36.291Z,58.67
2023-04-16T20:13:05.155Z,56.33
2023-04-16T20:15:33.227Z,57.07
2023-04-16T20:18:01.268Z,57.49
2023-04-16T20:20:29.487Z,57.69
2023-04-16T20:22:58.491Z,58.99
2023-04-16T20:25:26.761Z,62.05
2023-04-16T20:27:54.764Z,68.50
2023-04-16T20:30:24.652Z,69.52
2023-04-16T20:32:52.770Z,66.70
2023-04-16T20:35:21.085Z,64.10
2023-04-16T20:37:49.012Z,63.26
2023-04-16T20:40:17.232Z,62.60
2023-04-16T20:42:51.055Z,62.16
2023-04-16T20:45:19.200Z,61.33
2023-04-16T20:47:47.163Z,61.22
2023-04-16T20:50:15.958Z,61.07
2023-04-16T20:52:43.972Z,60.87
2023-04-16T20:55:12.011Z,59.68
2023-04-16T20:57:40.071Z,57.31
2023-04-16T21:00:12.200Z,56.79
2023-04-16T21:02:40.964Z,57.62
2023-04-16T21:05:14.318Z,58.79
2023-04-16T21:07:42.701Z,60.51
2023-04-16T21:10:11.257Z,65.08
2023-04-16T21:12:39.345Z,67.48
2023-04-16T21:15:08.187Z,66.12
2023-04-16T21:17:36.433Z,64.98
2023-04-16T21:20:07.115Z,64.23
2023-04-16T21:22:35.032Z,63.43
2023-04-16T21:25:03.939Z,62.47
2023-04-16T21:27:31.926Z,61.94
2023-04-16T21:29:59.828Z,61.63
2023-04-16T21:32:27.874Z,61.58
2023-04-16T21:34:56.180Z,61.53
2023-04-16T21:37:24.352Z,61.00
2023-04-16T21:39:52.183Z,60.46
2023-04-16T21:42:20.526Z,59.94
2023-04-16T21:44:48.568Z,59.71
2023-04-16T21:47:16.749Z,59.63
2023-04-16T21:49:44.769Z,59.60
2023-04-16T21:52:18.206Z,59.56
2023-04-16T21:54:46.236Z,59.54
2023-04-16T21:57:14.823Z,59.68
2023-04-16T21:59:42.872Z,59.77
2023-04-16T22:02:10.974Z,59.40
2023-04-16T22:04:39.384Z,57.19
2023-04-16T22:07:11.793Z,57.22
2023-04-16T22:09:40.528Z,57.83
2023-04-16T22:12:11.092Z,58.95
2023-04-16T22:14:44.021Z,59.00
2023-04-16T22:17:17.248Z,59.10
2023-04-16T22:19:45.292Z,58.41
2023-04-16T22:22:13.587Z,58.19
2023-04-16T22:24:42.509Z,60.75
2023-04-16T22:27:10.669Z,60.34
2023-04-16T22:29:38.718Z,60.33
2023-04-16T22:32:07.056Z,60.67
2023-04-16T22:34:35.182Z,61.22
2023-04-16T22:37:03.194Z,66.21
2023-04-16T22:39:31.815Z,70.28
2023-04-16T22:41:59.838Z,72.12
2023-04-16T22:44:27.857Z,71.54
2023-04-16T22:46:55.774Z,70.62
2023-04-16T22:49:23.694Z,69.68
2023-04-16T22:51:51.861Z,68.17
2023-04-16T22:54:19.817Z,66.17
2023-04-16T22:56:48.669Z,65.68
2023-04-16T22:59:16.680Z,65.01
2023-04-16T23:01:44.753Z,63.81
2023-04-16T23:04:12.771Z,62.75
2023-04-16T23:06:40.897Z,62.37
2023-04-16T23:09:09.995Z,62.25
2023-04-16T23:11:38.372Z,61.88
2023-04-16T23:14:06.313Z,61.66
2023-04-16T23:16:34.306Z,61.24
2023-04-16T23:19:02.281Z,61.03
2023-04-16T23:21:31.477Z,61.38
2023-04-16T23:23:59.558Z,61.06
2023-04-16T23:26:27.921Z,60.98
2023-04-16T23:28:57.136Z,60.37
2023-04-16T23:31:25.635Z,60.32
2023-04-16T23:33:54.317Z,60.52
2023-04-16T23:36:22.354Z,60.26
2023-04-16T23:38:50.323Z,60.36
2023-04-16T23:41:18.319Z,60.31
2023-04-16T23:43:46.571Z,59.91
2023-04-16T23:46:14.663Z,60.07
2023-04-16T23:48:42.714Z,59.95
2023-04-16T23:51:10.677Z,60.03
2023-04-16T23:53:40.927Z,59.92
2023-04-16T23:56:11.445Z,60.28
2023-04-16T23:58:39.499Z,60.49
